sensor_id;sensor_type;location;lat;lon;timestamp;pressure;altitude;pressure_sealevel;temperature;humidity
43741;BME280;29352;48.708;9.290;2023-04-15T00:00:09;96901.94;;;-4.83;82.89
43741;BME280;29352;48.708;9.290;2023-04-15T00:02:36;96900.28;;;-4.84;83.79
43741;BME280;29352;48.708;9.290;2023-04-15T00:05:02;96898.63;;;-4.76;83.81
43741;BME280;29352;48.708;9.290;2023-04-15T00:07:28;96888.88;;;-5.01;83.84
43741;BME280;29352;48.708;9.290;2023-04-15T00:09:54;96901.38;;;-5.14;84.47
43741;BME280;29352;48.708;9.290;2023-04-15T00:12:22;96897.06;;;-4.96;84.30
43741;BME280;29352;48.708;9.290;2023-04-15T00:14:48;96896.50;;;-4.90;83.62
43741;BME280;29352;48.708;9.290;2023-04-15T00:17:14;96904.81;;;-4.77;83.90
43741;BME280;29352;48.708;9.290;2023-04-15T00:19:39;96890.78;;;-5.03;83.61
43741;BME280;29352;48.708;9.290;2023-04-15T00:22:05;96897.34;;;-4.99;83.96
43741;BME280;29352;48.708;9.290;2023-04-15T00:24:31;96897.22;;;-4.97;83.70
43741;BME280;29352;48.708;9.290;2023-04-15T00:26:57;96894.47;;;-4.96;84.00
43741;BME280;29352;48.708;9.290;2023-04-15T00:29:22;96889.56;;;-5.09;84.76
43741;BME280;29352;48.708;9.290;2023-04-15T00:31:48;96887.94;;;-5.10;84.43
43741;BME280;29352;48.708;9.290;2023-04-15T00:34:14;96887.94;;;-4.72;83.40
43741;BME280;29352;48.708;9.290;2023-04-15T00:36:39;96884.47;;;-5.01;84.25
43741;BME280;29352;48.708;9.290;2023-04-15T00:39:05;96886.84;;;-5.07;84.43
43741;BME280;29352;48.708;9.290;2023-04-15T00:41:30;96878.06;;;-5.06;84.56
43741;BME280;29352;48.708;9.290;2023-04-15T00:43:58;96888.28;;;-4.95;84.52
43741;BME280;29352;48.708;9.290;2023-04-15T00:46:27;96882.19;;;-5.13;83.40
43741;BME280;29352;48.708;9.290;2023-04-15T00:48:53;96884.00;;;-5.24;84.25
43741;BME280;29352;48.708;9.290;2023-04-15T00:51:20;96882.41;;;-5.44;85.06
43741;BME280;29352;48.708;9.290;2023-04-15T00:53:45;96877.94;;;-5.14;84.47
43741;BME280;29352;48.708;9.290;2023-04-15T00:56:11;96887.03;;;-5.38;84.73
43741;BME280;29352;48.708;9.290;2023-04-15T00:58:37;96892.09;;;-5.36;84.74
43741;BME280;29352;48.708;9.290;2023-04-15T01:01:03;96890.34;;;-5.36;85.16
43741;BME280;29352;48.708;9.290;2023-04-15T01:03:29;96894.16;;;-5.40;84.39
43741;BME280;29352;48.708;9.290;2023-04-15T01:05:55;96890.09;;;-5.52;84.07
43741;BME280;29352;48.708;9.290;2023-04-15T01:08:29;96895.84;;;-5.78;84.33
43741;BME280;29352;48.708;9.290;2023-04-15T01:10:57;96886.78;;;-5.64;84.56
43741;BME280;29352;48.708;9.290;2023-04-15T01:13:26;96894.34;;;-5.90;85.45
43741;BME280;29352;48.708;9.290;2023-04-15T01:15:52;96893.00;;;-5.84;85.73
43741;BME280;29352;48.708;9.290;2023-04-15T01:18:18;96888.19;;;-5.69;84.97
43741;BME280;29352;48.708;9.290;2023-04-15T01:20:44;96898.31;;;-5.96;84.65
43741;BME280;29352;48.708;9.290;2023-04-15T01:23:10;96891.19;;;-6.03;85.18
43741;BME280;29352;48.708;9.290;2023-04-15T01:25:35;96890.22;;;-6.02;85.53
43741;BME280;29352;48.708;9.290;2023-04-15T01:28:01;96892.16;;;-5.85;85.47
43741;BME280;29352;48.708;9.290;2023-04-15T01:30:27;96885.59;;;-5.89;85.85
43741;BME280;29352;48.708;9.290;2023-04-15T01:32:53;96883.09;;;-5.61;84.39
43741;BME280;29352;48.708;9.290;2023-04-15T01:35:19;96879.41;;;-5.68;84.21
43741;BME280;29352;48.708;9.290;2023-04-15T01:37:45;96883.00;;;-5.79;84.50
43741;BME280;29352;48.708;9.290;2023-04-15T01:40:11;96887.66;;;-5.83;84.97
43741;BME280;29352;48.708;9.290;2023-04-15T01:42:38;96885.16;;;-5.75;84.70
43741;BME280;29352;48.708;9.290;2023-04-15T01:45:04;96891.59;;;-5.79;84.29
43741;BME280;29352;48.708;9.290;2023-04-15T01:47:30;96889.28;;;-5.72;84.38
43741;BME280;29352;48.708;9.290;2023-04-15T01:49:56;96884.38;;;-6.04;85.55
43741;BME280;29352;48.708;9.290;2023-04-15T01:52:21;96889.16;;;-6.00;85.45
43741;BME280;29352;48.708;9.290;2023-04-15T01:54:47;96889.41;;;-5.93;85.28
43741;BME280;29352;48.708;9.290;2023-04-15T01:57:13;96890.66;;;-6.07;85.70
43741;BME280;29352;48.708;9.290;2023-04-15T01:59:39;96892.44;;;-6.07;86.06
43741;BME280;29352;48.708;9.290;2023-04-15T02:02:05;96886.56;;;-5.90;85.98
43741;BME280;29352;48.708;9.290;2023-04-15T02:04:30;96892.00;;;-6.03;86.88
43741;BME280;29352;48.708;9.290;2023-04-15T02:06:56;96884.22;;;-6.22;86.77
43741;BME280;29352;48.708;9.290;2023-04-15T02:09:22;96881.63;;;-6.22;86.56
43741;BME280;29352;48.708;9.290;2023-04-15T02:11:47;96872.47;;;-5.97;87.49
43741;BME280;29352;48.708;9.290;2023-04-15T02:14:13;96880.09;;;-6.25;85.85
43741;BME280;29352;48.708;9.290;2023-04-15T02:16:38;96881.59;;;-6.32;86.48
43741;BME280;29352;48.708;9.290;2023-04-15T02:19:04;96869.56;;;-6.23;86.54
43741;BME280;29352;48.708;9.290;2023-04-15T02:21:30;96874.06;;;-6.35;86.39
43741;BME280;29352;48.708;9.290;2023-04-15T02:23:55;96870.13;;;-6.39;87.64
43741;BME280;29352;48.708;9.290;2023-04-15T02:26:21;96876.81;;;-6.46;86.08
43741;BME280;29352;48.708;9.290;2023-04-15T02:28:47;96883.34;;;-6.52;87.98
43741;BME280;29352;48.708;9.290;2023-04-15T02:31:15;96882.63;;;-6.54;86.52
43741;BME280;29352;48.708;9.290;2023-04-15T02:33:41;96877.72;;;-6.47;87.13
43741;BME280;29352;48.708;9.290;2023-04-15T02:36:07;96873.13;;;-6.34;87.68
43741;BME280;29352;48.708;9.290;2023-04-15T02:38:33;96880.94;;;-6.14;86.62
43741;BME280;29352;48.708;9.290;2023-04-15T02:40:58;96873.66;;;-6.30;83.84
43741;BME280;29352;48.708;9.290;2023-04-15T02:43:24;96871.72;;;-6.48;85.22
43741;BME280;29352;48.708;9.290;2023-04-15T02:45:49;96878.56;;;-6.56;85.94
43741;BME280;29352;48.708;9.290;2023-04-15T02:48:15;96877.59;;;-6.55;86.11
43741;BME280;29352;48.708;9.290;2023-04-15T02:50:43;96870.06;;;-6.58;86.48
43741;BME280;29352;48.708;9.290;2023-04-15T02:53:09;96872.81;;;-6.60;86.55
43741;BME280;29352;48.708;9.290;2023-04-15T02:55:35;96870.03;;;-6.68;86.80
43741;BME280;29352;48.708;9.290;2023-04-15T02:58:01;96867.00;;;-6.33;86.44
43741;BME280;29352;48.708;9.290;2023-04-15T03:00:27;96866.97;;;-6.43;87.10
43741;BME280;29352;48.708;9.290;2023-04-15T03:02:58;96873.38;;;-6.47;87.06
43741;BME280;29352;48.708;9.290;2023-04-15T03:05:27;96873.28;;;-6.76;86.31
43741;BME280;29352;48.708;9.290;2023-04-15T03:07:53;96876.16;;;-6.79;86.18
43741;BME280;29352;48.708;9.290;2023-04-15T03:10:19;96870.00;;;-6.87;87.04
43741;BME280;29352;48.708;9.290;2023-04-15T03:12:45;96881.41;;;-7.00;87.43
43741;BME280;29352;48.708;9.290;2023-04-15T03:15:11;96873.38;;;-6.97;86.82
43741;BME280;29352;48.708;9.290;2023-04-15T03:17:37;96879.00;;;-6.82;86.66
43741;BME280;29352;48.708;9.290;2023-04-15T03:20:03;96882.47;;;-6.72;87.44
43741;BME280;29352;48.708;9.290;2023-04-15T03:22:30;96878.78;;;-6.69;87.30
43741;BME280;29352;48.708;9.290;2023-04-15T03:24:56;96876.22;;;-6.59;87.04
43741;BME280;29352;48.708;9.290;2023-04-15T03:27:22;96871.84;;;-6.59;86.61
43741;BME280;29352;48.708;9.290;2023-04-15T03:29:47;96872.75;;;-6.79;87.09
43741;BME280;29352;48.708;9.290;2023-04-15T03:32:13;96878.41;;;-7.05;87.64
43741;BME280;29352;48.708;9.290;2023-04-15T03:34:40;96874.03;;;-7.04;87.25
43741;BME280;29352;48.708;9.290;2023-04-15T03:37:06;96875.84;;;-6.95;87.09
43741;BME280;29352;48.708;9.290;2023-04-15T03:39:33;96874.53;;;-7.10;87.39
43741;BME280;29352;48.708;9.290;2023-04-15T03:41:58;96879.50;;;-7.28;87.63
43741;BME280;29352;48.708;9.290;2023-04-15T03:44:25;96879.97;;;-7.14;88.08
43741;BME280;29352;48.708;9.290;2023-04-15T03:46:51;96869.84;;;-7.17;87.56
43741;BME280;29352;48.708;9.290;2023-04-15T03:49:16;96868.16;;;-7.27;88.15
43741;BME280;29352;48.708;9.290;2023-04-15T03:51:43;96865.59;;;-6.97;88.11
43741;BME280;29352;48.708;9.290;2023-04-15T03:54:09;96871.06;;;-6.50;88.71
43741;BME280;29352;48.708;9.290;2023-04-15T03:56:35;96866.31;;;-5.96;85.79
43741;BME280;29352;48.708;9.290;2023-04-15T03:59:01;96876.38;;;-6.42;86.47
43741;BME280;29352;48.708;9.290;2023-04-15T04:01:26;96872.06;;;-6.22;86.48
43741;BME280;29352;48.708;9.290;2023-04-15T04:03:51;96876.78;;;-6.96;87.98
43741;BME280;29352;48.708;9.290;2023-04-15T04:06:17;96876.78;;;-6.36;86.69
43741;BME280;29352;48.708;9.290;2023-04-15T04:08:42;96875.06;;;-6.76;89.66
43741;BME280;29352;48.708;9.290;2023-04-15T04:11:08;96885.53;;;-6.47;88.78
43741;BME280;29352;48.708;9.290;2023-04-15T04:13:33;96889.31;;;-6.61;88.15
43741;BME280;29352;48.708;9.290;2023-04-15T04:15:59;96880.97;;;-7.05;87.75
43741;BME280;29352;48.708;9.290;2023-04-15T04:18:24;96887.19;;;-7.17;88.47
43741;BME280;29352;48.708;9.290;2023-04-15T04:20:50;96884.06;;;-6.21;87.74
43741;BME280;29352;48.708;9.290;2023-04-15T04:23:15;96887.88;;;-6.34;86.27
43741;BME280;29352;48.708;9.290;2023-04-15T04:25:41;96892.00;;;-6.12;85.31
43741;BME280;29352;48.708;9.290;2023-04-15T04:28:07;96897.09;;;-6.71;85.86
43741;BME280;29352;48.708;9.290;2023-04-15T04:30:34;96901.22;;;-7.20;86.58
43741;BME280;29352;48.708;9.290;2023-04-15T04:33:00;96901.78;;;-7.16;87.70
43741;BME280;29352;48.708;9.290;2023-04-15T04:35:25;96901.81;;;-6.85;89.22
43741;BME280;29352;48.708;9.290;2023-04-15T04:37:51;96905.81;;;-7.12;87.56
43741;BME280;29352;48.708;9.290;2023-04-15T04:40:18;96900.97;;;-7.17;87.23
43741;BME280;29352;48.708;9.290;2023-04-15T04:42:43;96901.44;;;-7.11;87.74
43741;BME280;29352;48.708;9.290;2023-04-15T04:45:09;96903.97;;;-6.91;87.72
43741;BME280;29352;48.708;9.290;2023-04-15T04:47:34;96899.56;;;-7.00;88.32
43741;BME280;29352;48.708;9.290;2023-04-15T04:50:00;96903.88;;;-6.79;86.49
43741;BME280;29352;48.708;9.290;2023-04-15T04:52:25;96904.13;;;-6.82;86.75
43741;BME280;29352;48.708;9.290;2023-04-15T04:54:51;96910.28;;;-6.33;87.11
43741;BME280;29352;48.708;9.290;2023-04-15T04:57:16;96910.06;;;-6.71;88.24
43741;BME280;29352;48.708;9.290;2023-04-15T04:59:42;96908.38;;;-6.41;87.55
43741;BME280;29352;48.708;9.290;2023-04-15T05:02:07;96905.97;;;-6.04;86.20
43741;BME280;29352;48.708;9.290;2023-04-15T05:04:32;96901.41;;;-6.31;84.74
43741;BME280;29352;48.708;9.290;2023-04-15T05:06:58;96908.09;;;-6.38;85.74
43741;BME280;29352;48.708;9.290;2023-04-15T05:09:24;96907.03;;;-6.26;87.30
43741;BME280;29352;48.708;9.290;2023-04-15T05:11:49;96909.09;;;-6.20;85.45
43741;BME280;29352;48.708;9.290;2023-04-15T05:14:15;96907.63;;;-5.83;84.36
43741;BME280;29352;48.708;9.290;2023-04-15T05:16:40;96913.91;;;-5.86;85.51
43741;BME280;29352;48.708;9.290;2023-04-15T05:19:06;96914.31;;;-6.00;84.68
43741;BME280;29352;48.708;9.290;2023-04-15T05:21:32;96911.13;;;-6.23;85.48
43741;BME280;29352;48.708;9.290;2023-04-15T05:23:57;96916.47;;;-6.25;85.03
43741;BME280;29352;48.708;9.290;2023-04-15T05:26:23;96918.81;;;-6.22;85.43
43741;BME280;29352;48.708;9.290;2023-04-15T05:28:49;96915.00;;;-6.08;84.57
43741;BME280;29352;48.708;9.290;2023-04-15T05:31:15;96915.53;;;-5.75;83.78
43741;BME280;29352;48.708;9.290;2023-04-15T05:33:40;96908.00;;;-5.49;84.17
43741;BME280;29352;48.708;9.290;2023-04-15T05:36:06;96910.91;;;-5.05;82.38
43741;BME280;29352;48.708;9.290;2023-04-15T05:38:32;96917.63;;;-4.38;79.81
43741;BME280;29352;48.708;9.290;2023-04-15T05:40:57;96905.91;;;-3.35;77.06
43741;BME280;29352;48.708;9.290;2023-04-15T05:43:23;96909.25;;;-2.90;74.04
43741;BME280;29352;48.708;9.290;2023-04-15T05:45:48;96926.00;;;-4.16;79.05
43741;BME280;29352;48.708;9.290;2023-04-15T05:48:14;96917.78;;;-3.58;77.29
43741;BME280;29352;48.708;9.290;2023-04-15T05:50:42;96909.09;;;-2.04;73.13
43741;BME280;29352;48.708;9.290;2023-04-15T05:53:08;96909.16;;;-0.98;68.05
43741;BME280;29352;48.708;9.290;2023-04-15T05:55:34;96908.34;;;-0.98;67.81
43741;BME280;29352;48.708;9.290;2023-04-15T05:57:59;96917.84;;;-0.10;66.55
43741;BME280;29352;48.708;9.290;2023-04-15T06:00:25;96898.28;;;2.46;60.28
43741;BME280;29352;48.708;9.290;2023-04-15T06:02:51;96893.47;;;3.27;57.41
43741;BME280;29352;48.708;9.290;2023-04-15T06:05:17;96907.19;;;4.05;56.87
43741;BME280;29352;48.708;9.290;2023-04-15T06:07:43;96898.56;;;4.44;54.50
43741;BME280;29352;48.708;9.290;2023-04-15T06:10:09;96908.13;;;3.77;55.46
43741;BME280;29352;48.708;9.290;2023-04-15T06:12:35;96906.59;;;3.20;57.20
43741;BME280;29352;48.708;9.290;2023-04-15T06:15:00;96900.03;;;3.38;57.27
43741;BME280;29352;48.708;9.290;2023-04-15T06:17:26;96901.03;;;4.53;55.84
43741;BME280;29352;48.708;9.290;2023-04-15T06:19:52;96909.13;;;3.76;56.08
43741;BME280;29352;48.708;9.290;2023-04-15T06:22:21;96904.69;;;4.91;54.38
43741;BME280;29352;48.708;9.290;2023-04-15T06:24:48;96900.31;;;5.57;51.98
43741;BME280;29352;48.708;9.290;2023-04-15T06:27:17;96916.19;;;4.17;56.26
43741;BME280;29352;48.708;9.290;2023-04-15T06:29:43;96918.59;;;4.12;55.10
43741;BME280;29352;48.708;9.290;2023-04-15T06:32:09;96915.66;;;3.80;56.38
43741;BME280;29352;48.708;9.290;2023-04-15T06:34:35;96921.41;;;3.97;56.27
43741;BME280;29352;48.708;9.290;2023-04-15T06:37:00;96915.00;;;5.46;52.74
43741;BME280;29352;48.708;9.290;2023-04-15T06:39:25;96913.63;;;5.17;53.44
43741;BME280;29352;48.708;9.290;2023-04-15T06:41:51;96916.97;;;4.11;54.86
43741;BME280;29352;48.708;9.290;2023-04-15T06:44:17;96923.81;;;2.67;57.37
43741;BME280;29352;48.708;9.290;2023-04-15T06:46:43;96922.81;;;2.46;59.08
43741;BME280;29352;48.708;9.290;2023-04-15T06:49:09;96927.91;;;2.48;59.11
43741;BME280;29352;48.708;9.290;2023-04-15T06:51:35;96933.16;;;1.75;60.97
43741;BME280;29352;48.708;9.290;2023-04-15T06:54:01;96938.34;;;2.20;62.07
43741;BME280;29352;48.708;9.290;2023-04-15T06:56:33;96925.84;;;3.49;58.38
43741;BME280;29352;48.708;9.290;2023-04-15T06:58:59;96929.06;;;3.16;58.43
43741;BME280;29352;48.708;9.290;2023-04-15T07:01:25;96924.53;;;3.03;58.69
43741;BME280;29352;48.708;9.290;2023-04-15T07:03:50;96934.31;;;1.87;60.31
43741;BME280;29352;48.708;9.290;2023-04-15T07:06:16;96925.72;;;3.01;59.03
43741;BME280;29352;48.708;9.290;2023-04-15T07:08:41;96925.84;;;2.65;59.63
43741;BME280;29352;48.708;9.290;2023-04-15T07:11:07;96921.97;;;3.45;58.27
43741;BME280;29352;48.708;9.290;2023-04-15T07:13:33;96926.16;;;3.74;57.11
43741;BME280;29352;48.708;9.290;2023-04-15T07:15:59;96915.66;;;3.11;58.98
43741;BME280;29352;48.708;9.290;2023-04-15T07:18:24;96915.41;;;3.06;58.66
43741;BME280;29352;48.708;9.290;2023-04-15T07:20:50;96912.34;;;2.10;61.03
43741;BME280;29352;48.708;9.290;2023-04-15T07:23:15;96912.84;;;2.42;59.65
43741;BME280;29352;48.708;9.290;2023-04-15T07:25:41;96909.31;;;3.05;58.84
43741;BME280;29352;48.708;9.290;2023-04-15T07:28:06;96912.56;;;2.79;59.33
43741;BME280;29352;48.708;9.290;2023-04-15T07:30:32;96916.72;;;2.95;58.98
43741;BME280;29352;48.708;9.290;2023-04-15T07:32:59;96920.13;;;1.37;62.59
43741;BME280;29352;48.708;9.290;2023-04-15T07:35:24;96912.41;;;1.51;62.86
43741;BME280;29352;48.708;9.290;2023-04-15T07:37:50;96916.31;;;1.40;64.10
43741;BME280;29352;48.708;9.290;2023-04-15T07:40:16;96907.22;;;2.45;60.86
43741;BME280;29352;48.708;9.290;2023-04-15T07:42:42;96916.22;;;2.78;60.12
43741;BME280;29352;48.708;9.290;2023-04-15T07:45:08;96913.00;;;3.39;60.37
43741;BME280;29352;48.708;9.290;2023-04-15T07:47:34;96916.94;;;3.98;58.54
43741;BME280;29352;48.708;9.290;2023-04-15T07:50:00;96910.44;;;3.52;59.41
43741;BME280;29352;48.708;9.290;2023-04-15T07:52:26;96906.53;;;4.71;56.79
43741;BME280;29352;48.708;9.290;2023-04-15T07:54:52;96916.63;;;3.31;60.24
43741;BME280;29352;48.708;9.290;2023-04-15T07:57:18;96911.16;;;4.49;57.57
43741;BME280;29352;48.708;9.290;2023-04-15T07:59:43;96901.88;;;4.93;55.92
43741;BME280;29352;48.708;9.290;2023-04-15T08:02:10;96900.44;;;5.04;56.45
43741;BME280;29352;48.708;9.290;2023-04-15T08:04:36;96895.34;;;5.02;56.49
43741;BME280;29352;48.708;9.290;2023-04-15T08:07:03;96892.91;;;6.24;54.49
43741;BME280;29352;48.708;9.290;2023-04-15T08:09:29;96896.78;;;7.09;54.54
43741;BME280;29352;48.708;9.290;2023-04-15T08:11:54;96893.75;;;6.56;53.25
43741;BME280;29352;48.708;9.290;2023-04-15T08:14:21;96893.72;;;7.31;52.35
43741;BME280;29352;48.708;9.290;2023-04-15T08:16:47;96897.16;;;6.63;53.56
43741;BME280;29352;48.708;9.290;2023-04-15T08:19:12;96893.91;;;6.29;54.56
43741;BME280;29352;48.708;9.290;2023-04-15T08:21:38;96888.84;;;8.62;50.84
43741;BME280;29352;48.708;9.290;2023-04-15T08:24:05;96887.13;;;9.85;49.33
43741;BME280;29352;48.708;9.290;2023-04-15T08:26:31;96890.75;;;8.43;51.10
43741;BME280;29352;48.708;9.290;2023-04-15T08:28:56;96902.03;;;7.78;52.41
43741;BME280;29352;48.708;9.290;2023-04-15T08:31:22;96897.41;;;8.03;51.95
43741;BME280;29352;48.708;9.290;2023-04-15T08:33:47;96898.50;;;8.86;50.73
43741;BME280;29352;48.708;9.290;2023-04-15T08:36:13;96891.47;;;9.04;50.92
43741;BME280;29352;48.708;9.290;2023-04-15T08:38:38;96889.47;;;9.58;51.23
43741;BME280;29352;48.708;9.290;2023-04-15T08:41:17;96889.03;;;9.37;51.36
43741;BME280;29352;48.708;9.290;2023-04-15T08:43:58;96883.84;;;11.02;48.05
43741;BME280;29352;48.708;9.290;2023-04-15T08:46:26;96882.81;;;11.03;47.04
43741;BME280;29352;48.708;9.290;2023-04-15T08:48:56;96875.47;;;11.32;46.92
43741;BME280;29352;48.708;9.290;2023-04-15T08:51:22;96878.22;;;10.65;47.14
43741;BME280;29352;48.708;9.290;2023-04-15T08:53:49;96885.31;;;10.93;47.42
43741;BME280;29352;48.708;9.290;2023-04-15T08:56:18;96885.78;;;9.47;49.44
43741;BME280;29352;48.708;9.290;2023-04-15T08:58:52;96885.94;;;12.44;44.81
43741;BME280;29352;48.708;9.290;2023-04-15T09:01:18;96873.00;;;13.80;44.46
43741;BME280;29352;48.708;9.290;2023-04-15T09:03:44;96884.22;;;12.33;45.14
43741;BME280;29352;48.708;9.290;2023-04-15T09:06:15;96883.66;;;12.58;45.82
43741;BME280;29352;48.708;9.290;2023-04-15T09:08:42;96879.06;;;12.53;45.85
43741;BME280;29352;48.708;9.290;2023-04-15T09:11:08;96872.56;;;13.45;44.58
43741;BME280;29352;48.708;9.290;2023-04-15T09:13:34;96866.94;;;14.20;43.24
43741;BME280;29352;48.708;9.290;2023-04-15T09:16:04;96865.66;;;15.40;41.99
43741;BME280;29352;48.708;9.290;2023-04-15T09:18:36;96875.38;;;14.49;43.59
43741;BME280;29352;48.708;9.290;2023-04-15T09:21:10;96867.78;;;14.26;43.94
43741;BME280;29352;48.708;9.290;2023-04-15T09:23:40;96878.19;;;13.49;44.16
43741;BME280;29352;48.708;9.290;2023-04-15T09:26:18;96881.69;;;13.07;44.39
43741;BME280;29352;48.708;9.290;2023-04-15T09:28:43;96873.81;;;13.33;44.94
43741;BME280;29352;48.708;9.290;2023-04-15T09:31:09;96888.38;;;13.05;46.34
43741;BME280;29352;48.708;9.290;2023-04-15T09:33:35;96884.03;;;12.98;46.23
43741;BME280;29352;48.708;9.290;2023-04-15T09:36:17;96888.19;;;13.64;44.65
43741;BME280;29352;48.708;9.290;2023-04-15T09:38:57;96881.91;;;13.48;44.92
43741;BME280;29352;48.708;9.290;2023-04-15T09:41:25;96891.09;;;12.01;45.82
43741;BME280;29352;48.708;9.290;2023-04-15T09:43:51;96892.91;;;12.45;45.94
43741;BME280;29352;48.708;9.290;2023-04-15T09:46:17;96887.09;;;12.53;46.21
43741;BME280;29352;48.708;9.290;2023-04-15T09:48:43;96889.00;;;12.30;45.79
43741;BME280;29352;48.708;9.290;2023-04-15T09:51:09;96892.63;;;12.19;46.54
43741;BME280;29352;48.708;9.290;2023-04-15T09:53:37;96881.88;;;11.31;47.72
43741;BME280;29352;48.708;9.290;2023-04-15T09:56:03;96892.84;;;10.96;47.71
43741;BME280;29352;48.708;9.290;2023-04-15T09:58:34;96897.13;;;10.35;49.40
43741;BME280;29352;48.708;9.290;2023-04-15T10:01:03;96893.34;;;10.19;48.55
43741;BME280;29352;48.708;9.290;2023-04-15T10:03:33;96894.00;;;10.09;49.92
43741;BME280;29352;48.708;9.290;2023-04-15T10:06:01;96898.19;;;10.34;50.42
43741;BME280;29352;48.708;9.290;2023-04-15T10:08:32;96894.41;;;10.18;50.28
43741;BME280;29352;48.708;9.290;2023-04-15T10:11:01;96894.06;;;10.43;50.07
43741;BME280;29352;48.708;9.290;2023-04-15T10:13:29;96894.53;;;10.23;50.34
43741;BME280;29352;48.708;9.290;2023-04-15T10:18:42;96891.66;;;9.73;51.32
43741;BME280;29352;48.708;9.290;2023-04-15T10:21:10;96892.38;;;9.33;50.08
43741;BME280;29352;48.708;9.290;2023-04-15T10:23:38;96893.88;;;9.40;49.58
43741;BME280;29352;48.708;9.290;2023-04-15T10:26:04;96899.41;;;9.74;49.42
43741;BME280;29352;48.708;9.290;2023-04-15T10:28:31;96896.53;;;9.64;50.61
43741;BME280;29352;48.708;9.290;2023-04-15T10:30:57;96909.41;;;9.43;50.90
43741;BME280;29352;48.708;9.290;2023-04-15T10:33:25;96902.13;;;10.03;51.43
43741;BME280;29352;48.708;9.290;2023-04-15T10:35:54;96908.81;;;10.05;48.64
43741;BME280;29352;48.708;9.290;2023-04-15T10:41:20;96918.47;;;10.63;49.00
43741;BME280;29352;48.708;9.290;2023-04-15T10:44:03;96921.13;;;10.63;47.57
43741;BME280;29352;48.708;9.290;2023-04-15T10:46:44;96913.00;;;10.13;48.66
43741;BME280;29352;48.708;9.290;2023-04-15T10:49:23;96917.59;;;10.17;46.75
43741;BME280;29352;48.708;9.290;2023-04-15T10:51:52;96916.22;;;10.72;47.55
43741;BME280;29352;48.708;9.290;2023-04-15T10:57:05;96913.16;;;11.14;49.54
43741;BME280;29352;48.708;9.290;2023-04-15T10:59:38;96912.41;;;11.74;48.72
43741;BME280;29352;48.708;9.290;2023-04-15T11:02:53;96919.47;;;11.08;48.32
43741;BME280;29352;48.708;9.290;2023-04-15T11:05:22;96910.44;;;10.63;47.19
43741;BME280;29352;48.708;9.290;2023-04-15T11:08:14;96921.91;;;9.66;48.78
43741;BME280;29352;48.708;9.290;2023-04-15T11:15:39;96923.78;;;10.06;47.84
43741;BME280;29352;48.708;9.290;2023-04-15T11:20:51;96928.72;;;8.92;51.05
43741;BME280;29352;48.708;9.290;2023-04-15T11:23:39;96920.88;;;9.20;50.45
43741;BME280;29352;48.708;9.290;2023-04-15T11:26:09;96924.09;;;9.34;50.76
43741;BME280;29352;48.708;9.290;2023-04-15T11:28:40;96931.84;;;9.00;50.88
43741;BME280;29352;48.708;9.290;2023-04-15T11:31:12;96922.25;;;8.99;51.50
43741;BME280;29352;48.708;9.290;2023-04-15T11:33:59;96927.22;;;9.08;50.46
43741;BME280;29352;48.708;9.290;2023-04-15T11:36:28;96927.00;;;9.21;49.35
43741;BME280;29352;48.708;9.290;2023-04-15T11:38:58;96933.88;;;8.45;51.17
43741;BME280;29352;48.708;9.290;2023-04-15T11:41:24;96932.44;;;9.03;50.06
43741;BME280;29352;48.708;9.290;2023-04-15T11:43:50;96927.75;;;8.74;49.62
43741;BME280;29352;48.708;9.290;2023-04-15T11:46:17;96923.28;;;9.22;49.04
43741;BME280;29352;48.708;9.290;2023-04-15T11:48:45;96938.56;;;9.03;51.02
43741;BME280;29352;48.708;9.290;2023-04-15T11:51:12;96934.63;;;9.53;47.70
43741;BME280;29352;48.708;9.290;2023-04-15T11:53:45;96929.97;;;9.60;47.27
43741;BME280;29352;48.708;9.290;2023-04-15T11:56:23;96933.13;;;9.80;48.08
43741;BME280;29352;48.708;9.290;2023-04-15T11:58:57;96941.16;;;8.80;50.65
43741;BME280;29352;48.708;9.290;2023-04-15T12:01:37;96945.53;;;8.14;52.44
43741;BME280;29352;48.708;9.290;2023-04-15T12:04:12;96954.84;;;8.04;52.88
43741;BME280;29352;48.708;9.290;2023-04-15T12:06:39;96957.22;;;7.76;52.04
43741;BME280;29352;48.708;9.290;2023-04-15T12:11:31;96974.06;;;6.25;54.96
43741;BME280;29352;48.708;9.290;2023-04-15T12:14:01;96980.69;;;5.89;58.03
43741;BME280;29352;48.708;9.290;2023-04-15T12:16:32;97000.94;;;5.10;63.35
43741;BME280;29352;48.708;9.290;2023-04-15T12:19:04;96994.00;;;4.83;67.25
43741;BME280;29352;48.708;9.290;2023-04-15T12:21:35;96995.66;;;5.10;67.59
43741;BME280;29352;48.708;9.290;2023-04-15T12:24:05;96984.00;;;5.78;65.81
43741;BME280;29352;48.708;9.290;2023-04-15T12:29:07;96991.50;;;6.39;63.33
43741;BME280;29352;48.708;9.290;2023-04-15T12:31:34;96993.97;;;6.72;63.16
43741;BME280;29352;48.708;9.290;2023-04-15T12:34:06;96992.75;;;6.68;61.39
43741;BME280;29352;48.708;9.290;2023-04-15T12:36:33;96998.91;;;6.24;61.07
43741;BME280;29352;48.708;9.290;2023-04-15T12:39:04;97005.34;;;5.83;63.58
43741;BME280;29352;48.708;9.290;2023-04-15T12:41:31;97015.56;;;5.33;62.73
43741;BME280;29352;48.708;9.290;2023-04-15T12:43:57;97028.75;;;4.73;62.94
43741;BME280;29352;48.708;9.290;2023-04-15T12:46:23;97039.66;;;3.74;67.00
43741;BME280;29352;48.708;9.290;2023-04-15T12:48:50;97065.03;;;2.82;72.64
43741;BME280;29352;48.708;9.290;2023-04-15T12:51:18;97070.97;;;2.33;76.78
43741;BME280;29352;48.708;9.290;2023-04-15T12:53:46;97079.41;;;2.29;77.91
43741;BME280;29352;48.708;9.290;2023-04-15T12:56:12;97081.41;;;2.12;80.89
43741;BME280;29352;48.708;9.290;2023-04-15T12:58:38;97075.41;;;2.33;80.19
43741;BME280;29352;48.708;9.290;2023-04-15T13:01:03;97091.03;;;2.05;81.58
43741;BME280;29352;48.708;9.290;2023-04-15T13:03:29;97087.94;;;2.01;81.80
43741;BME280;29352;48.708;9.290;2023-04-15T13:05:54;97091.41;;;2.02;81.78
43741;BME280;29352;48.708;9.290;2023-04-15T13:08:21;97093.88;;;2.03;82.61
43741;BME280;29352;48.708;9.290;2023-04-15T13:10:47;97097.31;;;2.33;80.35
43741;BME280;29352;48.708;9.290;2023-04-15T13:13:12;97097.25;;;2.63;79.95
43741;BME280;29352;48.708;9.290;2023-04-15T13:15:38;97106.31;;;2.75;80.04
43741;BME280;29352;48.708;9.290;2023-04-15T13:18:05;97103.84;;;2.74;80.24
43741;BME280;29352;48.708;9.290;2023-04-15T13:20:31;97112.69;;;3.02;79.00
43741;BME280;29352;48.708;9.290;2023-04-15T13:22:56;97112.75;;;3.09;76.85
43741;BME280;29352;48.708;9.290;2023-04-15T13:25:22;97107.00;;;3.42;74.02